createdAt,value
2022-07-30T00:01:34.406Z,17.18
2022-07-30T00:04:03.007Z,17.19
2022-07-30T00:06:29.635Z,17.05
2022-07-30T00:08:56.702Z,17.15
2022-07-30T00:11:27.322Z,17.17
2022-07-30T00:13:54.155Z,17.11
2022-07-30T00:16:20.774Z,17.08
2022-07-30T00:18:47.445Z,17.00
2022-07-30T00:21:31.489Z,17.02
2022-07-30T00:24:02.522Z,17.05
2022-07-30T00:26:29.604Z,16.96
2022-07-30T00:28:56.214Z,16.98
2022-07-30T00:31:23.302Z,16.99
2022-07-30T00:33:50.010Z,17.01
2022-07-30T00:36:16.622Z,16.99
2022-07-30T00:38:43.209Z,16.94
2022-07-30T00:41:09.994Z,16.94
2022-07-30T00:43:36.502Z,16.92
2022-07-30T00:46:04.604Z,16.97
2022-07-30T00:48:31.148Z,16.94
2022-07-30T00:50:57.703Z,16.92
2022-07-30T00:53:24.496Z,16.87
2022-07-30T00:56:01.476Z,16.86
2022-07-30T00:58:28.052Z,16.83
2022-07-30T01:00:54.677Z,16.83
2022-07-30T01:03:21.221Z,16.81
2022-07-30T01:05:47.806Z,16.71
2022-07-30T01:08:14.365Z,16.68
2022-07-30T01:10:41.144Z,16.73
2022-07-30T01:13:08.358Z,16.82
2022-07-30T01:15:35.620Z,16.79
2022-07-30T01:18:05.571Z,16.73
2022-07-30T01:20:44.042Z,16.63
2022-07-30T01:23:31.939Z,16.65
2022-07-30T01:26:07.603Z,16.73
2022-07-30T01:28:37.663Z,16.73
2022-07-30T01:31:05.865Z,16.71
2022-07-30T01:33:37.431Z,16.69
2022-07-30T01:36:05.913Z,16.64
2022-07-30T01:38:35.657Z,16.53
2022-07-30T01:41:03.853Z,16.52
2022-07-30T01:43:31.615Z,16.57
2022-07-30T01:46:00.756Z,16.56
2022-07-30T01:48:28.964Z,16.53
2022-07-30T01:50:58.294Z,16.56
2022-07-30T01:53:29.930Z,16.54
2022-07-30T01:55:58.702Z,16.50
2022-07-30T01:58:29.772Z,16.53
2022-07-30T02:00:58.835Z,16.44
2022-07-30T02:03:27.386Z,16.39
2022-07-30T02:05:58.516Z,16.40
2022-07-30T02:08:34.969Z,16.39
2022-07-30T02:11:39.773Z,16.38
2022-07-30T02:14:17.897Z,16.35
2022-07-30T02:16:49.352Z,16.47
2022-07-30T02:19:18.255Z,16.29
2022-07-30T02:21:50.377Z,16.27
2022-07-30T02:24:31.321Z,16.31
2022-07-30T02:27:04.998Z,16.31
2022-07-30T02:29:34.621Z,16.39
2022-07-30T02:32:06.082Z,16.46
2022-07-30T02:34:36.539Z,16.39
2022-07-30T02:37:05.885Z,16.42
2022-07-30T02:39:34.635Z,16.37
2022-07-30T02:42:02.732Z,16.29
2022-07-30T02:44:30.496Z,16.33
2022-07-30T02:46:58.621Z,16.29
2022-07-30T02:49:28.203Z,16.26
2022-07-30T02:51:55.750Z,16.29
2022-07-30T02:54:24.403Z,16.29
2022-07-30T02:56:52.185Z,16.28
2022-07-30T02:59:20.988Z,16.26
2022-07-30T03:01:49.564Z,16.31
2022-07-30T03:04:20.621Z,16.33
2022-07-30T03:06:49.501Z,16.34
2022-07-30T03:09:18.087Z,16.26
2022-07-30T03:11:45.724Z,16.26
2022-07-30T03:14:12.494Z,16.29
2022-07-30T03:16:43.063Z,16.26
2022-07-30T03:19:11.313Z,16.25
2022-07-30T03:21:42.164Z,16.22
2022-07-30T03:24:11.971Z,16.26
2022-07-30T03:26:40.148Z,16.25
2022-07-30T03:29:08.730Z,16.25
2022-07-30T03:31:38.738Z,16.22
2022-07-30T03:34:06.778Z,16.26
2022-07-30T03:36:35.782Z,16.29
2022-07-30T03:39:05.180Z,16.32
2022-07-30T03:41:32.684Z,16.28
2022-07-30T03:44:00.420Z,16.28
2022-07-30T03:46:28.119Z,16.29
2022-07-30T03:48:55.223Z,16.29
2022-07-30T03:51:22.708Z,16.32
2022-07-30T03:53:51.585Z,16.33
2022-07-30T03:56:18.564Z,16.32
2022-07-30T03:58:45.470Z,16.33
2022-07-30T04:01:12.455Z,16.37
2022-07-30T04:03:39.279Z,16.29
2022-07-30T04:06:06.051Z,16.31
2022-07-30T04:08:32.594Z,16.33
2022-07-30T04:10:59.093Z,16.32
2022-07-30T04:13:25.814Z,16.20
2022-07-30T04:16:39.112Z,16.16
2022-07-30T04:19:12.151Z,16.11
2022-07-30T04:21:41.468Z,16.09
2022-07-30T04:24:10.743Z,16.13
2022-07-30T04:26:38.397Z,16.14
2022-07-30T04:29:09.048Z,16.13
2022-07-30T04:31:41.316Z,16.15
2022-07-30T04:34:08.951Z,16.13
2022-07-30T04:36:38.524Z,16.10
2022-07-30T04:39:05.033Z,16.09
2022-07-30T04:41:49.430Z,16.11
2022-07-30T04:44:17.992Z,16.11
2022-07-30T04:46:44.828Z,16.14
2022-07-30T04:49:14.048Z,16.16
2022-07-30T04:51:41.053Z,16.25
2022-07-30T04:54:15.408Z,16.23
2022-07-30T04:56:53.337Z,16.28
2022-07-30T04:59:23.668Z,16.41
2022-07-30T05:01:52.335Z,16.60
2022-07-30T05:04:19.474Z,16.77
2022-07-30T05:06:46.830Z,16.82
2022-07-30T05:09:16.054Z,16.93
2022-07-30T05:11:42.989Z,16.99
2022-07-30T05:14:09.484Z,17.06
2022-07-30T05:16:36.361Z,17.09
2022-07-30T05:19:07.537Z,17.10
2022-07-30T05:21:35.035Z,17.06
2022-07-30T05:24:01.652Z,17.06
2022-07-30T05:26:28.437Z,17.04
2022-07-30T05:28:56.795Z,17.05
2022-07-30T05:31:25.148Z,17.02
2022-07-30T05:33:52.131Z,17.32
2022-07-30T05:36:19.948Z,18.03
2022-07-30T05:38:46.924Z,19.88
2022-07-30T05:41:30.677Z,21.43
2022-07-30T05:43:59.075Z,21.78
2022-07-30T05:46:25.883Z,21.53
2022-07-30T05:48:52.742Z,22.05
2022-07-30T05:51:20.813Z,22.47
2022-07-30T05:53:47.671Z,23.72
2022-07-30T05:56:15.885Z,24.40
2022-07-30T05:58:42.448Z,24.12
2022-07-30T06:01:09.246Z,23.98
2022-07-30T06:03:35.847Z,22.99
2022-07-30T06:06:05.541Z,22.46
2022-07-30T06:08:32.071Z,22.11
2022-07-30T06:10:58.741Z,21.98
2022-07-30T06:13:25.390Z,21.45
2022-07-30T06:15:52.459Z,21.63
2022-07-30T06:18:19.091Z,21.80
2022-07-30T06:20:46.506Z,22.17
2022-07-30T06:23:13.489Z,21.78
2022-07-30T06:25:39.997Z,21.41
2022-07-30T06:28:27.791Z,21.33
2022-07-30T06:30:53.773Z,20.83
2022-07-30T06:33:20.524Z,21.03
2022-07-30T06:35:47.526Z,21.00
2022-07-30T06:38:17.233Z,20.99
2022-07-30T06:40:43.770Z,21.30
2022-07-30T06:43:10.274Z,21.80
2022-07-30T06:45:40.037Z,22.23
2022-07-30T06:48:06.524Z,22.34
2022-07-30T06:50:33.208Z,22.31
2022-07-30T06:52:59.715Z,22.31
2022-07-30T06:55:26.255Z,22.77
2022-07-30T06:57:53.262Z,23.83
2022-07-30T07:00:20.651Z,23.48
2022-07-30T07:02:47.232Z,23.36
2022-07-30T07:05:14.441Z,22.80
2022-07-30T07:07:43.219Z,22.72
2022-07-30T07:10:13.199Z,25.66
2022-07-30T07:12:39.764Z,27.26
2022-07-30T07:15:09.870Z,25.51
2022-07-30T07:17:36.533Z,24.27
2022-07-30T07:20:06.846Z,24.62
2022-07-30T07:22:35.506Z,26.12
2022-07-30T07:25:03.799Z,28.31
2022-07-30T07:27:30.390Z,29.80
2022-07-30T07:30:05.445Z,30.10
2022-07-30T07:32:34.165Z,31.42
2022-07-30T07:35:01.129Z,30.95
2022-07-30T07:37:28.518Z,30.93
2022-07-30T07:39:56.891Z,30.98
2022-07-30T07:42:23.908Z,31.78
2022-07-30T07:44:50.494Z,32.16
2022-07-30T07:47:18.203Z,32.69
2022-07-30T07:49:44.703Z,32.85
2022-07-30T07:52:12.762Z,32.80
2022-07-30T07:54:39.879Z,34.55
2022-07-30T07:57:10.272Z,32.25
2022-07-30T07:59:40.732Z,30.94
2022-07-30T08:02:08.579Z,32.49
2022-07-30T08:04:35.985Z,31.28
2022-07-30T08:07:03.305Z,31.27
2022-07-30T08:09:44.098Z,30.79
2022-07-30T08:12:12.581Z,29.13
2022-07-30T08:14:41.930Z,28.34
2022-07-30T08:17:09.283Z,29.14
2022-07-30T08:19:36.258Z,30.02
2022-07-30T08:22:02.797Z,31.45
2022-07-30T08:24:30.113Z,32.49
2022-07-30T08:26:57.016Z,32.78
2022-07-30T08:29:23.851Z,31.36
2022-07-30T08:31:50.384Z,30.58
2022-07-30T08:34:18.321Z,29.71
2022-07-30T08:36:46.139Z,29.27
2022-07-30T08:39:12.769Z,31.40
2022-07-30T08:41:42.098Z,33.03
2022-07-30T08:44:12.761Z,32.06
2022-07-30T08:46:47.542Z,33.54
2022-07-30T08:49:14.929Z,34.53
2022-07-30T08:51:43.205Z,34.12
2022-07-30T08:54:10.514Z,32.83
2022-07-30T08:56:37.361Z,32.56
2022-07-30T08:59:05.521Z,32.92
2022-07-30T09:01:32.143Z,33.20
2022-07-30T09:03:58.935Z,34.37
2022-07-30T09:06:25.625Z,35.29
2022-07-30T09:08:52.179Z,36.44
2022-07-30T09:11:18.904Z,32.62
2022-07-30T09:13:45.660Z,30.77
2022-07-30T09:16:23.743Z,32.90
2022-07-30T09:18:51.424Z,32.00
2022-07-30T09:21:24.566Z,31.12
2022-07-30T09:24:04.665Z,29.45
2022-07-30T09:26:35.578Z,30.19
2022-07-30T09:29:23.165Z,31.02
2022-07-30T09:31:56.893Z,31.49
2022-07-30T09:34:43.646Z,30.85
2022-07-30T09:37:10.547Z,28.51
2022-07-30T09:39:43.268Z,27.75
2022-07-30T09:42:28.141Z,27.80
2022-07-30T09:45:07.976Z,27.75
2022-07-30T09:47:39.771Z,29.46
2022-07-30T09:50:10.453Z,31.31
2022-07-30T09:52:44.342Z,32.32
2022-07-30T09:55:30.351Z,34.25
2022-07-30T09:58:00.068Z,33.97
2022-07-30T10:00:30.661Z,31.58
2022-07-30T10:02:57.681Z,29.99
2022-07-30T10:05:24.971Z,29.33
2022-07-30T10:08:09.137Z,29.74
2022-07-30T10:10:47.279Z,30.40
2022-07-30T10:13:20.903Z,31.20
2022-07-30T10:15:50.063Z,29.86
2022-07-30T10:18:18.158Z,29.31
2022-07-30T10:20:45.637Z,28.77
2022-07-30T10:23:15.806Z,27.12
2022-07-30T10:25:49.454Z,26.48
2022-07-30T10:28:24.130Z,29.56
2022-07-30T10:30:51.630Z,29.71
2022-07-30T10:33:36.461Z,30.40
2022-07-30T10:36:05.820Z,30.03
2022-07-30T10:38:39.180Z,30.19
2022-07-30T10:41:42.843Z,32.23
2022-07-30T10:44:47.734Z,32.61
2022-07-30T10:47:18.580Z,32.69
2022-07-30T10:50:04.906Z,32.14
2022-07-30T10:52:55.866Z,31.13
2022-07-30T10:55:37.128Z,31.48
2022-07-30T10:58:09.236Z,32.62
2022-07-30T11:00:56.942Z,33.12
2022-07-30T11:03:41.545Z,33.54
2022-07-30T11:06:14.890Z,34.13
2022-07-30T11:08:48.021Z,34.96
2022-07-30T11:11:21.009Z,34.83
2022-07-30T11:14:07.678Z,34.91
2022-07-30T11:16:37.257Z,34.95
2022-07-30T11:19:53.181Z,34.40
2022-07-30T11:22:38.901Z,33.37
2022-07-30T11:25:27.453Z,31.53
2022-07-30T11:28:42.185Z,29.70
2022-07-30T11:31:57.958Z,28.50
2022-07-30T11:34:35.095Z,26.48
2022-07-30T11:37:18.517Z,25.57
2022-07-30T11:39:55.190Z,25.11
2022-07-30T11:42:29.405Z,24.94
2022-07-30T11:45:23.198Z,24.86
2022-07-30T11:47:53.289Z,25.07
2022-07-30T11:50:25.867Z,24.91
2022-07-30T11:53:03.934Z,25.11
2022-07-30T11:55:34.903Z,24.64
2022-07-30T11:58:04.900Z,24.11
2022-07-30T12:00:39.744Z,24.91
2022-07-30T12:03:14.701Z,26.48
2022-07-30T12:05:42.110Z,26.55
2022-07-30T12:08:31.610Z,25.85
2022-07-30T12:11:00.707Z,25.56
2022-07-30T12:13:44.810Z,26.88
2022-07-30T12:16:16.583Z,28.15
2022-07-30T12:18:44.138Z,28.92
2022-07-30T12:21:12.733Z,28.91
2022-07-30T12:23:41.931Z,28.10
2022-07-30T12:26:08.831Z,27.33
2022-07-30T12:28:36.474Z,26.08
2022-07-30T12:31:04.388Z,26.92
2022-07-30T12:33:31.753Z,28.31
2022-07-30T12:36:00.522Z,28.70
2022-07-30T12:38:28.501Z,29.77
2022-07-30T12:40:56.813Z,30.80
2022-07-30T12:43:46.277Z,29.51
2022-07-30T12:46:16.438Z,29.59
2022-07-30T12:49:10.316Z,30.38
2022-07-30T12:51:59.719Z,29.13
2022-07-30T12:54:26.988Z,29.33
2022-07-30T12:57:03.304Z,29.63
2022-07-30T12:59:35.417Z,29.01
2022-07-30T13:02:03.586Z,28.09
2022-07-30T13:04:31.598Z,28.25
2022-07-30T13:07:10.485Z,29.20
2022-07-30T13:09:38.098Z,28.39
2022-07-30T13:12:04.923Z,27.50
2022-07-30T13:14:31.750Z,26.39
2022-07-30T13:16:58.793Z,25.91
2022-07-30T13:19:26.739Z,26.40
2022-07-30T13:21:53.238Z,27.30
2022-07-30T13:24:20.161Z,28.27
2022-07-30T13:26:46.850Z,29.54
2022-07-30T13:29:13.830Z,28.92
2022-07-30T13:31:43.204Z,28.50
2022-07-30T13:34:12.159Z,29.15
2022-07-30T13:36:39.207Z,29.23
2022-07-30T13:39:05.763Z,28.23
2022-07-30T13:41:33.206Z,28.69
2022-07-30T13:43:59.807Z,28.40
2022-07-30T13:46:26.772Z,28.34
2022-07-30T13:48:53.566Z,27.90
2022-07-30T13:51:20.386Z,27.53
2022-07-30T13:53:46.978Z,27.50
2022-07-30T13:56:13.795Z,27.12
2022-07-30T13:58:43.316Z,26.85
2022-07-30T14:01:17.709Z,27.17
2022-07-30T14:03:50.874Z,27.38
2022-07-30T14:06:18.782Z,27.43
2022-07-30T14:08:45.372Z,27.58
2022-07-30T14:11:13.991Z,27.37
2022-07-30T14:13:40.709Z,27.27
2022-07-30T14:16:28.518Z,26.76
2022-07-30T14:18:57.404Z,27.06
2022-07-30T14:21:24.399Z,27.50
2022-07-30T14:23:50.989Z,27.44
2022-07-30T14:26:17.539Z,27.36
2022-07-30T14:28:44.117Z,27.40
2022-07-30T14:31:11.125Z,27.40
2022-07-30T14:33:38.241Z,27.14
2022-07-30T14:36:05.001Z,26.98
2022-07-30T14:38:31.610Z,26.95
2022-07-30T14:40:58.110Z,27.09
2022-07-30T14:43:27.278Z,26.91
2022-07-30T14:45:55.176Z,27.06
2022-07-30T14:48:22.199Z,27.09
2022-07-30T14:51:12.994Z,27.36
2022-07-30T14:53:37.687Z,27.73
2022-07-30T14:56:05.556Z,27.75
2022-07-30T14:58:32.164Z,27.55
2022-07-30T15:01:01.125Z,27.05
2022-07-30T15:03:44.443Z,26.78
2022-07-30T15:06:15.107Z,26.93
2022-07-30T15:08:42.513Z,26.94
2022-07-30T15:11:09.571Z,27.14
2022-07-30T15:13:37.130Z,26.85
2022-07-30T15:16:16.629Z,27.21
2022-07-30T15:18:43.183Z,27.23
2022-07-30T15:21:09.678Z,27.69
2022-07-30T15:23:36.442Z,27.43
2022-07-30T15:26:03.037Z,27.62
2022-07-30T15:28:30.655Z,27.41
2022-07-30T15:30:58.365Z,27.21
2022-07-30T15:33:25.653Z,27.02
2022-07-30T15:35:54.056Z,26.75
2022-07-30T15:38:23.694Z,26.34
2022-07-30T15:40:50.358Z,26.71
2022-07-30T15:43:17.134Z,27.21
2022-07-30T15:45:52.407Z,27.12
2022-07-30T15:48:24.680Z,26.92
2022-07-30T15:51:04.392Z,26.32
2022-07-30T15:53:32.112Z,26.05
2022-07-30T15:55:59.818Z,25.94
2022-07-30T15:58:26.627Z,25.90
2022-07-30T16:00:53.411Z,25.94
2022-07-30T16:03:20.013Z,25.75
2022-07-30T16:05:51.359Z,25.45
2022-07-30T16:08:22.436Z,25.46
2022-07-30T16:10:49.646Z,25.27
2022-07-30T16:13:16.255Z,25.15
2022-07-30T16:15:42.880Z,25.14
2022-07-30T16:18:09.511Z,25.30
2022-07-30T16:20:36.082Z,25.34
2022-07-30T16:23:02.580Z,25.48
2022-07-30T16:25:29.221Z,25.73
2022-07-30T16:27:55.739Z,25.88
2022-07-30T16:30:24.342Z,26.03
2022-07-30T16:32:56.188Z,26.04
2022-07-30T16:35:23.178Z,25.77
2022-07-30T16:37:49.793Z,25.39
2022-07-30T16:40:16.836Z,25.05
2022-07-30T16:42:43.378Z,25.06
2022-07-30T16:45:10.350Z,24.78
2022-07-30T16:47:36.937Z,24.81
2022-07-30T16:50:03.720Z,24.81
2022-07-30T16:52:30.313Z,24.75
2022-07-30T16:54:56.827Z,24.83
2022-07-30T16:57:23.486Z,24.81
2022-07-30T16:59:50.030Z,24.80
2022-07-30T17:02:17.760Z,24.77
2022-07-30T17:04:44.332Z,24.66
2022-07-30T17:07:10.947Z,24.69
2022-07-30T17:09:37.511Z,24.61
2022-07-30T17:12:11.814Z,24.55
2022-07-30T17:14:40.142Z,24.33
2022-07-30T17:17:09.693Z,24.34
2022-07-30T17:19:40.168Z,24.39
2022-07-30T17:22:06.749Z,24.16
2022-07-30T17:24:33.255Z,24.21
2022-07-30T17:26:59.939Z,24.26
2022-07-30T17:29:26.559Z,24.39
2022-07-30T17:31:53.202Z,24.19
2022-07-30T17:34:22.106Z,24.13
2022-07-30T17:36:52.702Z,23.92
2022-07-30T17:40:28.495Z,23.91
2022-07-30T17:42:08.736Z,23.81
2022-07-30T17:44:35.503Z,23.63
2022-07-30T17:47:03.205Z,23.56
2022-07-30T17:49:29.985Z,23.57
2022-07-30T17:51:56.807Z,23.45
2022-07-30T17:54:23.420Z,23.35
2022-07-30T17:56:50.040Z,23.24
2022-07-30T17:59:16.569Z,23.24
2022-07-30T18:01:43.414Z,23.13
2022-07-30T18:04:09.971Z,22.98
2022-07-30T18:06:36.572Z,22.94
2022-07-30T18:09:04.974Z,22.69
2022-07-30T18:11:31.725Z,22.48
2022-07-30T18:13:58.559Z,22.30
2022-07-30T18:16:25.592Z,21.86
2022-07-30T18:18:52.878Z,21.75
2022-07-30T18:21:19.507Z,21.58
2022-07-30T18:23:46.087Z,21.34
2022-07-30T18:26:12.726Z,21.21
2022-07-30T18:28:39.355Z,21.13
2022-07-30T18:31:06.046Z,21.00
2022-07-30T18:33:32.609Z,21.00
2022-07-30T18:35:59.299Z,20.91
2022-07-30T18:38:25.848Z,20.80
2022-07-30T18:40:58.692Z,20.79
2022-07-30T18:43:30.107Z,20.65
2022-07-30T18:45:57.886Z,20.50
2022-07-30T18:48:25.285Z,20.39
2022-07-30T18:50:53.097Z,20.15
2022-07-30T18:53:20.076Z,20.03
2022-07-30T18:55:47.080Z,19.89
2022-07-30T18:58:13.595Z,19.77
2022-07-30T19:00:43.188Z,19.69
2022-07-30T19:03:17.406Z,19.67
2022-07-30T19:05:45.667Z,19.59
2022-07-30T19:08:12.265Z,19.35
2022-07-30T19:10:39.947Z,19.14
2022-07-30T19:13:06.775Z,18.96
2022-07-30T19:15:33.355Z,18.89
2022-07-30T19:17:59.938Z,18.83
2022-07-30T19:20:26.773Z,18.69
2022-07-30T19:23:01.346Z,18.65
2022-07-30T19:25:29.670Z,18.53
2022-07-30T19:27:56.422Z,18.46
2022-07-30T19:30:23.307Z,18.34
2022-07-30T19:32:50.147Z,18.14
2022-07-30T19:35:16.876Z,18.14
2022-07-30T19:37:43.496Z,17.99
2022-07-30T19:40:10.820Z,17.94
2022-07-30T19:42:41.397Z,17.93
2022-07-30T19:45:11.166Z,17.96
2022-07-30T19:47:39.776Z,17.87
2022-07-30T19:50:10.556Z,17.84
2022-07-30T19:52:38.430Z,17.87
2022-07-30T19:55:17.162Z,17.78
2022-07-30T19:57:54.246Z,17.67
2022-07-30T20:00:25.450Z,17.58
2022-07-30T20:02:52.917Z,17.45
2022-07-30T20:05:20.012Z,17.27
2022-07-30T20:07:49.076Z,17.11
2022-07-30T20:10:15.732Z,17.01
2022-07-30T20:12:48.881Z,16.89
2022-07-30T20:15:17.312Z,16.82
2022-07-30T20:17:43.957Z,16.71
2022-07-30T20:20:13.597Z,16.66
2022-07-30T20:22:43.212Z,16.65
2022-07-30T20:25:11.057Z,16.58
2022-07-30T20:27:38.835Z,16.58
2022-07-30T20:30:07.202Z,16.44
2022-07-30T20:32:34.372Z,16.35
2022-07-30T20:35:00.932Z,16.27
2022-07-30T20:37:29.188Z,16.12
2022-07-30T20:39:56.071Z,16.12
2022-07-30T20:42:23.946Z,16.20
2022-07-30T20:45:11.008Z,16.13
2022-07-30T20:47:39.843Z,16.02
2022-07-30T20:50:10.015Z,16.00
2022-07-30T20:52:40.185Z,16.07
2022-07-30T20:55:14.399Z,16.00
2022-07-30T20:57:57.175Z,15.94
2022-07-30T21:00:28.953Z,15.91
2022-07-30T21:02:55.523Z,15.79
2022-07-30T21:05:22.191Z,15.83
2022-07-30T21:07:52.840Z,15.92
2022-07-30T21:10:21.719Z,15.93
2022-07-30T21:12:53.070Z,16.10
2022-07-30T21:15:24.494Z,15.90
2022-07-30T21:17:53.300Z,15.96
2022-07-30T21:20:27.433Z,15.97
2022-07-30T21:22:56.260Z,16.13
2022-07-30T21:25:32.502Z,16.15
2022-07-30T21:28:02.917Z,16.20
2022-07-30T21:30:31.230Z,16.19
2022-07-30T21:32:59.460Z,16.25
2022-07-30T21:35:31.859Z,16.41
2022-07-30T21:37:59.032Z,16.39
2022-07-30T21:40:25.719Z,16.42
2022-07-30T21:42:54.297Z,16.51
2022-07-30T21:45:21.133Z,16.66
2022-07-30T21:47:48.323Z,16.82
2022-07-30T21:50:16.195Z,16.89
2022-07-30T21:52:43.823Z,17.01
2022-07-30T21:55:13.549Z,17.08
2022-07-30T21:57:40.949Z,17.13
2022-07-30T22:00:14.886Z,17.08
2022-07-30T22:02:52.991Z,17.14
2022-07-30T22:05:21.788Z,17.19
2022-07-30T22:07:51.547Z,17.26
2022-07-30T22:10:21.580Z,17.24
2022-07-30T22:12:49.693Z,17.24
2022-07-30T22:15:18.258Z,17.17
2022-07-30T22:17:58.099Z,17.19
2022-07-30T22:20:31.615Z,17.13
2022-07-30T22:23:04.609Z,17.16
2022-07-30T22:25:39.875Z,17.19
2022-07-30T22:28:10.755Z,17.17
2022-07-30T22:30:40.697Z,17.13
2022-07-30T22:33:09.828Z,17.21
2022-07-30T22:35:37.291Z,17.18
2022-07-30T22:38:05.121Z,17.12
2022-07-30T22:40:32.326Z,17.20
2022-07-30T22:42:58.896Z,17.22
2022-07-30T22:45:42.326Z,17.24
2022-07-30T22:48:17.499Z,17.17
2022-07-30T22:50:46.435Z,17.19
2022-07-30T22:54:10.560Z,17.27
2022-07-30T22:56:05.952Z,17.35
2022-07-30T22:58:40.784Z,17.33
2022-07-30T23:01:10.873Z,17.16
2022-07-30T23:03:37.692Z,17.20
2022-07-30T23:06:04.309Z,17.09
2022-07-30T23:08:33.079Z,17.07
2022-07-30T23:11:00.089Z,17.15
2022-07-30T23:13:27.596Z,17.12
2022-07-30T23:15:54.554Z,17.05
2022-07-30T23:18:21.087Z,16.93
2022-07-30T23:20:47.579Z,16.95
2022-07-30T23:23:15.091Z,16.78
2022-07-30T23:25:41.961Z,16.54
2022-07-30T23:28:08.541Z,16.47
2022-07-30T23:30:35.140Z,16.39
2022-07-30T23:33:01.724Z,16.29
2022-07-30T23:35:29.834Z,16.14
2022-07-30T23:37:57.591Z,16.13
2022-07-30T23:40:24.320Z,16.16
2022-07-30T23:42:51.844Z,16.11
2022-07-30T23:45:19.673Z,16.06
2022-07-30T23:48:00.694Z,15.96
2022-07-30T23:50:30.082Z,15.97
2022-07-30T23:52:56.966Z,16.06
2022-07-30T23:55:24.306Z,15.90
2022-07-30T23:57:50.855Z,15.86
